Time;durP1;ratioP1;P1;durP2;ratioP2;P2;SDS_P1;SDS_P2;PMS_P1;PMS_P2;Temp;Humidity;BMP_temperature;BMP_pressure;BME280_temperature;BME280_humidity;BME280_pressure;Samples;Min_cycle;Max_cycle;Signal;HPM_P1;HPM_P2
2023/06/01 00:00:10;;;;;;;;;;;;;;;20.54;89.80;102225.66;5059740;28;19916;-52
2023/06/01 00:02:38;;;;;;;;;;;;;;;20.35;91.95;102222.16;5053468;28;19972;-49
2023/06/01 00:05:03;;;;;;;;;;;;;;;20.53;90.82;102217.72;5059046;28;19927;-55
2023/06/01 00:07:29;;;;;;;;;;;;;;;20.69;88.47;102219.81;5056549;28;19924;-51
2023/06/01 00:09:55;;;;;;;;;;;;;;;20.79;87.20;102219.28;5057140;28;19924;-54
2023/06/01 00:12:20;;;;;;;;;;;;;;;20.66;86.97;102217.56;5062618;28;19976;-54
2023/06/01 00:14:46;;;;;;;;;;;;;;;20.31;90.01;102208.19;5057263;28;20161;-54
2023/06/01 00:17:12;;;;;;;;;;;;;;;20.40;89.34;102214.16;5059259;28;19920;-50
2023/06/01 00:19:38;;;;;;;;;;;;;;;20.38;89.63;102210.00;5059250;28;19919;-51
2023/06/01 00:22:03;;;;;;;;;;;;;;;20.37;89.33;102214.59;5060422;28;19905;-51
2023/06/01 00:24:29;;;;;;;;;;;;;;;20.54;87.84;102216.72;5055126;28;19913;-54
2023/06/01 00:26:54;;;;;;;;;;;;;;;20.37;88.49;102219.19;5057493;28;19936;-52
2023/06/01 00:29:20;;;;;;;;;;;;;;;20.44;87.50;102215.34;5055511;28;19913;-51
2023/06/01 00:31:46;;;;;;;;;;;;;;;20.31;88.63;102210.09;5058824;28;20513;-53
2023/06/01 00:34:12;;;;;;;;;;;;;;;20.36;87.48;102210.22;5055359;28;19971;-54
2023/06/01 00:36:38;;;;;;;;;;;;;;;20.32;87.69;102204.41;5041874;28;19980;-54
2023/06/01 00:39:03;;;;;;;;;;;;;;;20.28;87.93;102213.25;5037235;28;19920;-51
2023/06/01 00:41:31;;;;;;;;;;;;;;;19.84;92.91;102211.41;5056716;28;19919;-52
2023/06/01 00:43:56;;;;;;;;;;;;;;;20.03;90.60;102209.56;5058727;28;19912;-53
2023/06/01 00:46:21;;;;;;;;;;;;;;;20.04;90.46;102208.50;5036794;28;19913;-55
2023/06/01 00:48:47;;;;;;;;;;;;;;;20.04;89.40;102205.78;5059879;28;19944;-51
2023/06/01 00:51:14;;;;;;;;;;;;;;;20.19;88.78;102212.75;5035601;28;19917;-52
2023/06/01 00:53:41;;;;;;;;;;;;;;;20.27;88.21;102212.44;5060160;28;19915;-51
2023/06/01 00:56:07;;;;;;;;;;;;;;;20.23;88.24;102213.94;5043331;28;19947;-52
2023/06/01 00:58:32;;;;;;;;;;;;;;;20.19;88.34;102212.75;5056746;28;19920;-49
2023/06/01 01:00:58;;;;;;;;;;;;;;;19.93;89.96;102211.97;5041644;28;19924;-51
2023/06/01 01:03:25;;;;;;;;;;;;;;;19.92;90.02;102213.84;5059154;28;19976;-52
2023/06/01 01:05:57;;;;;;;;;;;;;;;19.83;90.50;102212.44;5056462;28;19939;-52
2023/06/01 01:08:36;;;;;;;;;;;;;;;19.71;91.60;102216.97;5053875;28;19928;-54
2023/06/01 01:11:16;;;;;;;;;;;;;;;19.81;90.78;102217.25;5042698;28;19913;-52
2023/06/01 01:13:47;;;;;;;;;;;;;;;19.60;92.31;102210.38;5058315;28;19913;-54
2023/06/01 01:16:18;;;;;;;;;;;;;;;19.68;92.02;102222.84;5054708;28;19934;-52
2023/06/01 01:19:04;;;;;;;;;;;;;;;19.65;92.77;102212.44;5055898;28;19969;-55
2023/06/01 01:21:31;;;;;;;;;;;;;;;19.84;91.11;102211.41;5063231;28;19909;-51
2023/06/01 01:24:16;;;;;;;;;;;;;;;19.76;91.32;102214.41;5056508;28;19913;-54
2023/06/01 01:26:46;;;;;;;;;;;;;;;19.76;90.96;102212.53;5041397;28;19968;-55
2023/06/01 01:29:13;;;;;;;;;;;;;;;19.54;92.92;102203.94;5055899;28;19916;-55
2023/06/01 01:31:39;;;;;;;;;;;;;;;19.65;91.88;102212.44;5057116;28;19972;-53
2023/06/01 01:34:05;;;;;;;;;;;;;;;19.60;93.17;102213.91;5040406;28;19923;-54
2023/06/01 01:36:31;;;;;;;;;;;;;;;19.34;95.63;102210.38;5054684;28;20000;-51
2023/06/01 01:38:57;;;;;;;;;;;;;;;19.55;94.71;102207.50;5056127;28;19936;-53
2023/06/01 01:41:22;;;;;;;;;;;;;;;19.63;94.28;102213.50;5040244;28;19913;-53
2023/06/01 01:43:49;;;;;;;;;;;;;;;19.75;92.86;102218.16;5041233;28;19924;-51
2023/06/01 01:46:32;;;;;;;;;;;;;;;19.67;93.35;102216.56;5036198;28;19940;-55
2023/06/01 01:49:10;;;;;;;;;;;;;;;19.58;93.53;102218.72;5056809;28;19923;-55
2023/06/01 01:51:44;;;;;;;;;;;;;;;19.45;94.99;102216.97;5053103;28;19917;-55
2023/06/01 01:54:12;;;;;;;;;;;;;;;19.61;93.56;102214.75;5039060;28;19924;-55
2023/06/01 01:56:38;;;;;;;;;;;;;;;19.68;92.18;102217.41;5040309;28;19913;-54
2023/06/01 01:59:04;;;;;;;;;;;;;;;19.64;93.74;102217.00;5057543;28;19920;-57
2023/06/01 02:01:31;;;;;;;;;;;;;;;19.24;97.33;102214.63;5042420;28;19955;-56
2023/06/01 02:04:01;;;;;;;;;;;;;;;19.67;93.08;102222.00;5059343;28;19940;-56
2023/06/01 02:06:26;;;;;;;;;;;;;;;19.74;92.02;102221.94;5045811;28;19909;-54
2023/06/01 02:08:52;;;;;;;;;;;;;;;19.84;91.71;102218.72;5035133;28;19924;-53
2023/06/01 02:11:18;;;;;;;;;;;;;;;19.97;90.55;102218.63;5023384;28;19914;-52
2023/06/01 02:13:43;;;;;;;;;;;;;;;19.83;91.73;102209.72;5025181;28;19914;-52
2023/06/01 02:16:08;;;;;;;;;;;;;;;19.86;91.15;102209.31;5022537;28;19913;-53
2023/06/01 02:18:35;;;;;;;;;;;;;;;19.70;91.44;102207.16;5024940;28;19924;-53
2023/06/01 02:21:00;;;;;;;;;;;;;;;19.58;92.86;102204.34;5027262;28;21441;-55
2023/06/01 02:23:25;;;;;;;;;;;;;;;19.94;90.64;102212.78;5029456;28;19917;-54
2023/06/01 02:25:51;;;;;;;;;;;;;;;19.87;90.44;102205.53;5031070;28;19905;-52
2023/06/01 02:28:17;;;;;;;;;;;;;;;19.93;89.81;102206.53;5022910;28;19921;-53
2023/06/01 02:30:42;;;;;;;;;;;;;;;19.86;90.61;102203.88;5027585;28;19948;-54
2023/06/01 02:33:08;;;;;;;;;;;;;;;20.06;89.04;102202.84;5022873;28;19914;-52
2023/06/01 02:35:34;;;;;;;;;;;;;;;19.98;89.07;102206.69;5028782;28;20641;-52
2023/06/01 02:37:59;;;;;;;;;;;;;;;19.80;91.60;102204.75;5031538;28;19913;-56
2023/06/01 02:40:25;;;;;;;;;;;;;;;20.01;89.12;102205.41;5028312;28;19913;-55
2023/06/01 02:42:50;;;;;;;;;;;;;;;19.79;91.16;102205.81;5027184;28;19917;-51
2023/06/01 02:45:16;;;;;;;;;;;;;;;19.61;93.92;102207.47;5027627;28;19924;-56
2023/06/01 02:47:43;;;;;;;;;;;;;;;19.87;90.98;102201.97;5029667;28;19913;-53
2023/06/01 02:50:10;;;;;;;;;;;;;;;19.83;89.69;102198.88;5025597;28;19935;-52
2023/06/01 02:52:41;;;;;;;;;;;;;;;19.70;90.76;102205.25;5032641;28;19985;-50
2023/06/01 02:55:06;;;;;;;;;;;;;;;20.02;88.82;102209.78;5019389;28;19920;-54
2023/06/01 02:57:52;;;;;;;;;;;;;;;19.78;90.07;102209.56;5001453;28;19914;-51
2023/06/01 03:00:18;;;;;;;;;;;;;;;19.46;92.24;102198.81;5023380;28;19913;-50
2023/06/01 03:02:46;;;;;;;;;;;;;;;19.27;94.50;102201.47;5022916;28;19945;-54
2023/06/01 03:05:14;;;;;;;;;;;;;;;19.47;91.82;102203.19;5026114;28;19914;-50
2023/06/01 03:07:44;;;;;;;;;;;;;;;19.59;89.97;102204.09;5019444;28;19972;-54
2023/06/01 03:10:18;;;;;;;;;;;;;;;19.34;91.96;102204.94;5035788;28;19923;-53
2023/06/01 03:13:16;;;;;;;;;;;;;;;19.56;89.43;102203.75;5035202;28;19939;-50
2023/06/01 03:15:43;;;;;;;;;;;;;;;19.59;89.13;102206.81;5040268;28;19956;-54
2023/06/01 03:18:09;;;;;;;;;;;;;;;19.30;91.68;102195.59;5038014;28;19913;-55
2023/06/01 03:20:34;;;;;;;;;;;;;;;19.37;91.67;102210.97;5035139;28;19924;-54
2023/06/01 03:23:00;;;;;;;;;;;;;;;19.10;92.90;102208.47;5043328;28;19913;-56
2023/06/01 03:25:26;;;;;;;;;;;;;;;19.43;91.32;102199.28;5037764;28;19913;-56
2023/06/01 03:27:51;;;;;;;;;;;;;;;19.30;91.71;102203.75;5038636;28;19941;-49
2023/06/01 03:30:17;;;;;;;;;;;;;;;19.60;88.72;102204.94;5040285;28;19940;-48
2023/06/01 03:32:43;;;;;;;;;;;;;;;19.50;89.16;102205.47;5037177;28;19913;-50
2023/06/01 03:35:09;;;;;;;;;;;;;;;19.54;88.78;102198.53;5037430;28;19977;-54
2023/06/01 03:37:35;;;;;;;;;;;;;;;19.67;87.43;102204.91;5033669;28;19914;-53
2023/06/01 03:40:10;;;;;;;;;;;;;;;19.68;87.50;102203.84;5040233;28;20000;-55
2023/06/01 03:42:46;;;;;;;;;;;;;;;19.62;87.79;102202.84;5039672;28;19933;-54
2023/06/01 03:45:12;;;;;;;;;;;;;;;19.61;88.47;102201.19;5046298;28;19931;-52
2023/06/01 03:47:38;;;;;;;;;;;;;;;19.67;87.49;102203.00;5036941;28;19936;-55
2023/06/01 03:50:06;;;;;;;;;;;;;;;19.58;88.24;102197.03;5036463;28;19936;-52
2023/06/01 03:52:32;;;;;;;;;;;;;;;19.53;89.02;102202.28;5036908;28;19939;-53
2023/06/01 03:54:58;;;;;;;;;;;;;;;19.49;89.59;102198.38;5035014;28;19920;-52
2023/06/01 03:57:44;;;;;;;;;;;;;;;19.56;88.84;102193.72;5037686;28;19913;-53
2023/06/01 04:00:19;;;;;;;;;;;;;;;19.53;89.11;102199.59;5036898;28;19932;-51
2023/06/01 04:02:53;;;;;;;;;;;;;;;19.74;87.75;102205.66;5038015;28;19916;-54
2023/06/01 04:05:19;;;;;;;;;;;;;;;19.70;87.50;102207.16;5032350;28;19984;-56
2023/06/01 04:07:46;;;;;;;;;;;;;;;19.54;88.83;102203.94;5039387;28;19972;-51
2023/06/01 04:10:13;;;;;;;;;;;;;;;19.87;86.98;102210.13;5032089;28;19985;-52
2023/06/01 04:12:39;;;;;;;;;;;;;;;19.87;86.65;102219.09;5038897;28;19920;-56
2023/06/01 04:15:04;;;;;;;;;;;;;;;19.61;88.61;102209.31;5043876;28;19976;-52
2023/06/01 04:17:31;;;;;;;;;;;;;;;19.76;87.00;102207.09;5035930;28;19949;-53
2023/06/01 04:19:56;;;;;;;;;;;;;;;20.04;84.55;102222.09;5036981;28;19924;-53
2023/06/01 04:22:21;;;;;;;;;;;;;;;20.14;83.58;102213.41;5036929;28;19928;-55
2023/06/01 04:24:47;;;;;;;;;;;;;;;20.15;83.49;102206.06;5036607;28;19952;-52
2023/06/01 04:27:15;;;;;;;;;;;;;;;19.86;84.83;102209.31;5031330;28;19996;-53
2023/06/01 04:29:43;;;;;;;;;;;;;;;19.92;84.01;102211.13;5038897;28;19917;-52
2023/06/01 04:32:10;;;;;;;;;;;;;;;20.05;82.80;102212.03;5036319;28;19953;-54
2023/06/01 04:34:37;;;;;;;;;;;;;;;19.96;82.51;102214.25;5040139;28;19913;-55
2023/06/01 04:37:04;;;;;;;;;;;;;;;19.95;82.47;102222.59;5036451;28;19920;-54
2023/06/01 04:39:30;;;;;;;;;;;;;;;20.16;81.80;102221.31;5037899;28;19912;-54
2023/06/01 04:41:57;;;;;;;;;;;;;;;20.35;80.62;102227.59;5035656;28;19920;-52
2023/06/01 04:44:22;;;;;;;;;;;;;;;20.29;80.93;102217.63;5035726;28;19925;-52
2023/06/01 04:46:49;;;;;;;;;;;;;;;19.84;82.95;102216.84;5036985;28;19970;-52
2023/06/01 04:49:15;;;;;;;;;;;;;;;20.22;81.93;102216.88;5037237;28;19924;-56
2023/06/01 04:51:42;;;;;;;;;;;;;;;20.12;82.29;102218.25;5046657;28;19937;-53
2023/06/01 04:54:07;;;;;;;;;;;;;;;20.36;80.74;102215.66;5036295;28;19948;-55
2023/06/01 04:56:33;;;;;;;;;;;;;;;20.36;80.86;102221.09;5033928;28;19943;-53
2023/06/01 04:59:00;;;;;;;;;;;;;;;19.88;82.77;102220.75;5038663;28;19917;-52
2023/06/01 05:01:29;;;;;;;;;;;;;;;19.84;83.10;102218.72;5033817;28;19914;-52
2023/06/01 05:03:56;;;;;;;;;;;;;;;19.61;85.26;102217.47;5040285;28;19921;-53
2023/06/01 05:06:21;;;;;;;;;;;;;;;19.83;84.24;102223.28;5036732;28;19909;-53
2023/06/01 05:08:47;;;;;;;;;;;;;;;19.99;82.84;102213.78;5037890;28;19952;-52
2023/06/01 05:11:13;;;;;;;;;;;;;;;19.95;82.77;102220.69;5036191;28;19916;-55
2023/06/01 05:13:38;;;;;;;;;;;;;;;19.87;82.19;102218.25;5036534;28;19924;-54
2023/06/01 05:16:05;;;;;;;;;;;;;;;20.17;80.94;102225.69;5055791;28;19912;-52
2023/06/01 05:18:31;;;;;;;;;;;;;;;20.30;79.72;102222.84;5036273;28;19913;-54
2023/06/01 05:20:57;;;;;;;;;;;;;;;20.16;79.64;102219.44;5039193;28;20063;-57
2023/06/01 05:23:23;;;;;;;;;;;;;;;20.16;79.60;102222.16;5041272;28;19913;-51
2023/06/01 05:25:48;;;;;;;;;;;;;;;20.13;79.69;102219.06;5036396;28;19956;-51
2023/06/01 05:28:14;;;;;;;;;;;;;;;20.11;80.17;102221.16;5039982;28;19956;-54
2023/06/01 05:30:40;;;;;;;;;;;;;;;19.78;81.62;102221.28;5059381;28;19913;-55
2023/06/01 05:33:06;;;;;;;;;;;;;;;20.44;78.88;102223.50;5038571;28;19913;-54
2023/06/01 05:35:32;;;;;;;;;;;;;;;20.60;76.97;102226.66;5036264;28;19920;-52
2023/06/01 05:37:57;;;;;;;;;;;;;;;20.41;78.27;102223.94;5037935;28;19913;-53
2023/06/01 05:40:23;;;;;;;;;;;;;;;20.87;76.33;102226.31;5039749;28;19949;-57
2023/06/01 05:42:48;;;;;;;;;;;;;;;20.63;77.31;102223.47;5042140;28;19913;-55
2023/06/01 05:45:14;;;;;;;;;;;;;;;20.71;76.55;102231.28;5037864;28;19917;-53
2023/06/01 05:47:41;;;;;;;;;;;;;;;20.84;75.70;102235.75;5037575;28;19920;-56
2023/06/01 05:50:07;;;;;;;;;;;;;;;21.01;74.74;102235.09;5037744;28;19913;-55
2023/06/01 05:52:33;;;;;;;;;;;;;;;21.17;73.24;102233.59;5035502;28;19923;-55
2023/06/01 05:54:59;;;;;;;;;;;;;;;21.19;73.07;102235.03;5033378;28;19914;-53
2023/06/01 05:57:25;;;;;;;;;;;;;;;20.90;74.13;102240.28;5038386;28;19920;-58
2023/06/01 05:59:50;;;;;;;;;;;;;;;20.94;73.71;102237.91;5063270;28;19972;-58
2023/06/01 06:02:16;;;;;;;;;;;;;;;21.04;73.55;102237.34;5038145;28;19928;-54
2023/06/01 06:04:43;;;;;;;;;;;;;;;20.94;73.97;102234.38;5058244;28;19913;-54
2023/06/01 06:07:09;;;;;;;;;;;;;;;20.88;74.33;102236.13;5055427;28;19921;-50
2023/06/01 06:09:35;;;;;;;;;;;;;;;20.94;74.55;102232.47;5052445;28;19923;-51
2023/06/01 06:12:01;;;;;;;;;;;;;;;21.23;72.82;102226.41;5053475;28;19935;-58
2023/06/01 06:14:26;;;;;;;;;;;;;;;21.40;71.95;102224.66;5058222;28;19971;-52
2023/06/01 06:16:52;;;;;;;;;;;;;;;21.55;71.09;102234.25;5058092;28;19908;-51
2023/06/01 06:19:17;;;;;;;;;;;;;;;21.58;70.40;102231.06;5052910;28;19913;-55
2023/06/01 06:21:43;;;;;;;;;;;;;;;21.62;70.32;102227.63;5055223;28;19927;-54
2023/06/01 06:24:08;;;;;;;;;;;;;;;21.48;70.50;102240.63;5057996;28;19924;-52
2023/06/01 06:26:34;;;;;;;;;;;;;;;21.73;69.98;102236.06;5055448;28;19956;-53
2023/06/01 06:29:00;;;;;;;;;;;;;;;21.53;69.56;102231.78;5053251;28;19921;-53
2023/06/01 06:31:25;;;;;;;;;;;;;;;21.75;69.16;102233.94;5055218;28;19912;-53
2023/06/01 06:33:51;;;;;;;;;;;;;;;21.77;68.72;102231.81;5056668;28;19921;-51
2023/06/01 06:36:16;;;;;;;;;;;;;;;21.88;68.35;102232.88;5055792;28;19917;-56
2023/06/01 06:38:42;;;;;;;;;;;;;;;21.77;68.03;102226.34;5058186;28;19980;-49
2023/06/01 06:41:08;;;;;;;;;;;;;;;22.11;67.00;102229.25;5060959;28;19920;-55
2023/06/01 06:43:33;;;;;;;;;;;;;;;22.13;66.21;102232.56;5055854;28;19955;-54
2023/06/01 06:45:59;;;;;;;;;;;;;;;22.27;65.82;102230.44;5060274;28;19924;-50
2023/06/01 06:48:24;;;;;;;;;;;;;;;22.58;65.15;102225.63;5058313;28;19916;-50
2023/06/01 06:50:50;;;;;;;;;;;;;;;22.62;64.65;102232.25;5058467;28;20096;-55
2023/06/01 06:53:15;;;;;;;;;;;;;;;22.28;65.33;102231.25;5066468;28;19916;-55
2023/06/01 06:55:42;;;;;;;;;;;;;;;22.20;65.20;102246.06;5061860;28;19913;-53
2023/06/01 06:58:10;;;;;;;;;;;;;;;22.14;65.27;102241.59;5056748;28;19920;-54
2023/06/01 07:00:36;;;;;;;;;;;;;;;22.18;64.96;102240.88;5061829;28;19913;-54
2023/06/01 07:03:01;;;;;;;;;;;;;;;22.56;63.39;102251.47;5059651;28;19952;-57
2023/06/01 07:05:27;;;;;;;;;;;;;;;22.73;62.44;102255.06;5060486;28;19974;-53
2023/06/01 07:07:53;;;;;;;;;;;;;;;22.47;63.34;102246.41;5056121;28;19972;-57
2023/06/01 07:10:18;;;;;;;;;;;;;;;22.48;62.94;102244.50;5055803;28;19936;-52
2023/06/01 07:12:44;;;;;;;;;;;;;;;22.65;62.82;102241.84;5065009;28;19919;-55
2023/06/01 07:15:10;;;;;;;;;;;;;;;22.40;63.49;102244.84;5057882;28;19913;-55
2023/06/01 07:17:35;;;;;;;;;;;;;;;22.08;64.22;102245.28;5058042;28;19987;-51
2023/06/01 07:20:06;;;;;;;;;;;;;;;21.91;64.95;102240.56;5061008;28;19920;-51
2023/06/01 07:22:32;;;;;;;;;;;;;;;22.26;64.10;102245.13;5064705;28;19912;-53
2023/06/01 07:24:58;;;;;;;;;;;;;;;;;;5059570;28;19943;-54
2023/06/01 07:27:24;;;;;;;;;;;;;;;22.28;63.89;102243.00;5057700;28;19980;-56
2023/06/01 07:29:54;;;;;;;;;;;;;;;22.38;63.94;102242.38;5055720;28;19960;-53
2023/06/01 07:32:20;;;;;;;;;;;;;;;22.42;63.80;102243.56;5055457;28;19917;-53
2023/06/01 07:34:46;;;;;;;;;;;;;;;22.64;62.97;102234.75;5057199;28;19935;-53
2023/06/01 07:37:12;;;;;;;;;;;;;;;22.78;62.52;102241.53;5060008;28;19921;-54
2023/06/01 07:39:37;;;;;;;;;;;;;;;23.00;61.36;102240.84;5059255;28;19939;-55
2023/06/01 07:42:02;;;;;;;;;;;;;;;22.97;61.76;102244.06;5053137;28;19920;-57
2023/06/01 07:44:28;;;;;;;;;;;;;;;23.08;60.90;102246.97;5058246;28;19952;-57
2023/06/01 07:46:53;;;;;;;;;;;;;;;23.14;60.91;102246.00;5056221;28;19913;-54
2023/06/01 07:49:19;;;;;;;;;;;;;;;23.34;59.81;102238.19;5054775;28;19971;-55
2023/06/01 07:51:44;;;;;;;;;;;;;;;23.55;59.68;102245.84;5059758;28;19896;-53
2023/06/01 07:54:10;;;;;;;;;;;;;;;22.99;60.82;102241.91;5058868;28;19924;-51
2023/06/01 07:56:35;;;;;;;;;;;;;;;23.87;58.82;102245.22;5055301;28;19913;-54
2023/06/01 07:59:01;;;;;;;;;;;;;;;23.94;58.77;102240.41;5060535;28;19913;-53
2023/06/01 08:01:26;;;;;;;;;;;;;;;24.03;58.42;102232.66;5058434;28;19913;-53
2023/06/01 08:03:52;;;;;;;;;;;;;;;23.86;59.60;102236.22;5057395;28;19948;-53
2023/06/01 08:06:22;;;;;;;;;;;;;;;24.32;57.60;102241.47;5055142;28;19913;-52
2023/06/01 08:08:49;;;;;;;;;;;;;;;24.47;56.66;102246.31;5058184;28;19917;-51
2023/06/01 08:11:15;;;;;;;;;;;;;;;24.55;56.33;102246.94;5062079;28;19920;-56
2023/06/01 08:13:41;;;;;;;;;;;;;;;24.50;56.33;102236.75;5052547;28;19913;-56
2023/06/01 08:16:07;;;;;;;;;;;;;;;24.33;56.57;102239.56;5058004;28;19905;-54
2023/06/01 08:18:33;;;;;;;;;;;;;;;24.77;55.49;102241.44;5056464;28;19920;-51
2023/06/01 08:21:00;;;;;;;;;;;;;;;24.67;54.98;102239.41;5056554;28;19923;-58
2023/06/01 08:23:25;;;;;;;;;;;;;;;24.18;56.32;102229.28;5058039;28;19928;-55
2023/06/01 08:25:51;;;;;;;;;;;;;;;24.49;56.20;102235.09;5057756;28;19917;-51
2023/06/01 08:28:16;;;;;;;;;;;;;;;24.40;56.22;102226.53;5060113;28;19920;-51
2023/06/01 08:30:42;;;;;;;;;;;;;;;24.79;55.60;102233.00;5061331;28;19920;-51
2023/06/01 08:33:07;;;;;;;;;;;;;;;25.17;54.72;102228.44;5056757;28;19923;-53
2023/06/01 08:35:34;;;;;;;;;;;;;;;24.61;55.66;102233.06;5054093;28;19913;-54
2023/06/01 08:38:00;;;;;;;;;;;;;;;24.75;54.56;102229.94;5055909;28;19935;-52
2023/06/01 08:40:27;;;;;;;;;;;;;;;24.60;54.94;102219.63;5059696;28;19981;-56
2023/06/01 08:43:04;;;;;;;;;;;;;;;24.46;55.74;102217.31;5057642;28;19913;-54
2023/06/01 08:45:29;;;;;;;;;;;;;;;24.60;55.61;102219.63;5054163;28;19909;-52
2023/06/01 08:47:57;;;;;;;;;;;;;;;24.94;54.78;102219.47;5059173;28;19913;-57
2023/06/01 08:50:23;;;;;;;;;;;;;;;24.71;55.48;102215.94;5053531;28;19976;-49
2023/06/01 08:52:49;;;;;;;;;;;;;;;24.72;54.86;102217.59;5057558;28;19921;-56
2023/06/01 08:55:16;;;;;;;;;;;;;;;24.91;55.70;102218.06;5057879;28;19967;-57
2023/06/01 08:57:41;;;;;;;;;;;;;;;24.61;56.27;102216.66;5056047;28;19921;-53
2023/06/01 09:00:11;;;;;;;;;;;;;;;24.66;55.46;102217.78;5059142;28;19988;-54
2023/06/01 09:02:37;;;;;;;;;;;;;;;25.16;54.53;102218.56;5062675;28;19912;-54
2023/06/01 09:05:03;;;;;;;;;;;;;;;24.88;55.19;102215.84;5059680;28;19917;-53
2023/06/01 09:07:31;;;;;;;;;;;;;;;24.85;55.47;102218.28;5060273;28;19916;-53
2023/06/01 09:09:57;;;;;;;;;;;;;;;24.54;55.88;102207.00;5057869;28;19920;-57
2023/06/01 09:12:24;;;;;;;;;;;;;;;24.55;56.13;102214.13;5053869;28;19920;-54
2023/06/01 09:14:50;;;;;;;;;;;;;;;24.88;54.53;102215.84;5054936;28;20247;-54
2023/06/01 09:17:24;;;;;;;;;;;;;;;24.24;54.80;102211.06;5055557;28;19921;-52
2023/06/01 09:19:50;;;;;;;;;;;;;;;24.92;55.31;102210.69;5054439;28;19913;-53
2023/06/01 09:22:16;;;;;;;;;;;;;;;25.17;55.21;102206.53;5057447;28;19985;-55
2023/06/01 09:24:54;;;;;;;;;;;;;;;25.27;54.88;102195.66;5053465;28;19913;-55
2023/06/01 09:27:19;;;;;;;;;;;;;;;25.60;53.69;102199.19;5053912;28;20460;-56
2023/06/01 09:29:52;;;;;;;;;;;;;;;25.96;52.79;102194.97;5054277;28;19924;-50
2023/06/01 09:32:19;;;;;;;;;;;;;;;26.40;51.84;102199.25;5055298;28;19944;-57
2023/06/01 09:34:45;;;;;;;;;;;;;;;26.35;51.02;102200.09;5058605;28;19913;-56
2023/06/01 09:37:12;;;;;;;;;;;;;;;26.51;51.17;102191.88;5055357;28;19916;-58
2023/06/01 09:39:38;;;;;;;;;;;;;;;27.00;49.92;102188.69;5053568;28;19913;-50
2023/06/01 09:42:04;;;;;;;;;;;;;;;27.24;49.55;102193.63;5058280;28;19913;-55
2023/06/01 09:44:33;;;;;;;;;;;;;;;27.82;48.66;102202.56;5051705;28;19940;-56
2023/06/01 09:47:04;;;;;;;;;;;;;;;28.27;47.86;102184.25;5055980;28;19923;-55
2023/06/01 09:49:31;;;;;;;;;;;;;;;28.50;47.54;102192.09;5035686;28;19972;-55
2023/06/01 09:52:05;;;;;;;;;;;;;;;29.29;45.26;102192.00;5053718;28;19913;-55
2023/06/01 09:54:31;;;;;;;;;;;;;;;30.23;43.27;102185.47;5057639;28;19947;-53
2023/06/01 09:56:57;;;;;;;;;;;;;;;30.59;42.47;102191.25;5054115;28;19909;-51
2023/06/01 09:59:23;;;;;;;;;;;;;;;31.40;40.89;102189.34;5060052;28;19920;-56
2023/06/01 10:01:50;;;;;;;;;;;;;;;32.16;39.45;102187.25;5055554;28;19912;-54
2023/06/01 10:04:22;;;;;;;;;;;;;;;32.78;38.00;102196.13;5052541;28;19916;-55
2023/06/01 10:06:51;;;;;;;;;;;;;;;32.77;37.87;102191.72;5057917;28;19912;-56
2023/06/01 10:09:19;;;;;;;;;;;;;;;32.45;37.40;102200.75;5054536;28;19947;-55
2023/06/01 10:11:45;;;;;;;;;;;;;;;33.44;36.84;102201.06;5054695;28;19925;-57
2023/06/01 10:14:11;;;;;;;;;;;;;;;33.45;36.39;102197.19;5053150;28;19912;-55
2023/06/01 10:16:37;;;;;;;;;;;;;;;33.61;35.28;102200.31;5058892;28;19913;-56
2023/06/01 10:19:03;;;;;;;;;;;;;;;33.86;34.15;102204.28;5057026;28;19940;-56
2023/06/01 10:21:29;;;;;;;;;;;;;;;33.76;35.11;102210.16;5062545;28;19920;-55
2023/06/01 10:23:55;;;;;;;;;;;;;;;34.41;33.77;102199.31;5062425;28;19920;-57
2023/06/01 10:26:21;;;;;;;;;;;;;;;34.44;33.99;102204.22;5059990;28;19977;-54
2023/06/01 10:28:47;;;;;;;;;;;;;;;34.60;33.80;102195.41;5061971;28;19917;-58
2023/06/01 10:31:31;;;;;;;;;;;;;;;34.41;33.83;102202.09;5056220;28;19976;-52
2023/06/01 10:33:57;;;;;;;;;;;;;;;35.29;32.75;102203.91;5057676;28;19912;-52
2023/06/01 10:36:23;;;;;;;;;;;;;;;35.35;32.69;102196.22;5062687;28;19931;-55
2023/06/01 10:38:49;;;;;;;;;;;;;;;35.93;31.41;102209.66;5059065;28;19912;-55
2023/06/01 10:41:25;;;;;;;;;;;;;;;36.34;30.98;102207.28;5058130;28;19919;-57
2023/06/01 10:43:51;;;;;;;;;;;;;;;36.20;31.57;102208.34;5059001;28;19944;-50
2023/06/01 10:46:36;;;;;;;;;;;;;;;35.89;30.94;102202.00;5059966;28;19928;-54
2023/06/01 10:49:02;;;;;;;;;;;;;;;36.80;29.97;102202.59;5058517;28;19944;-55
2023/06/01 10:51:28;;;;;;;;;;;;;;;37.01;29.76;102201.72;5056833;28;19980;-52
2023/06/01 10:53:53;;;;;;;;;;;;;;;36.71;29.61;102188.75;5056462;28;19920;-56
2023/06/01 10:56:23;;;;;;;;;;;;;;;37.31;29.36;102191.19;5060110;28;19913;-53
2023/06/01 10:59:07;;;;;;;;;;;;;;;37.19;30.07;102180.03;5061537;28;19944;-53
2023/06/01 11:01:40;;;;;;;;;;;;;;;37.36;28.92;102189.31;5061105;28;19913;-56
2023/06/01 11:04:06;;;;;;;;;;;;;;;37.05;28.56;102187.91;5055995;28;19913;-56
2023/06/01 11:06:42;;;;;;;;;;;;;;;37.57;29.04;102195.59;5058669;28;19993;-57
2023/06/01 11:09:10;;;;;;;;;;;;;;;38.25;28.10;102190.50;5057304;28;19956;-56
2023/06/01 11:11:50;;;;;;;;;;;;;;;38.92;27.73;102189.13;5059055;28;19976;-54
2023/06/01 11:14:17;;;;;;;;;;;;;;;38.73;27.71;102187.03;5058462;28;19905;-57
2023/06/01 11:16:42;;;;;;;;;;;;;;;38.97;27.67;102180.47;5059022;28;19920;-55
2023/06/01 11:19:09;;;;;;;;;;;;;;;39.10;26.60;102191.59;5056376;28;19917;-58
2023/06/01 11:21:35;;;;;;;;;;;;;;;39.91;26.14;102187.50;5060751;28;19905;-58
2023/06/01 11:24:04;;;;;;;;;;;;;;;40.12;25.81;102186.34;5059952;28;19939;-54
2023/06/01 11:26:35;;;;;;;;;;;;;;;40.72;25.10;102193.53;5054355;28;19913;-58
2023/06/01 11:29:06;;;;;;;;;;;;;;;40.39;24.93;102178.06;5060731;28;19916;-58
2023/06/01 11:31:34;;;;;;;;;;;;;;;41.27;25.28;102175.63;5060558;28;19941;-56
2023/06/01 11:34:00;;;;;;;;;;;;;;;39.91;24.93;102172.69;5055885;28;19913;-57
2023/06/01 11:36:26;;;;;;;;;;;;;;;40.95;24.66;102179.50;5058208;28;19929;-58
2023/06/01 11:38:57;;;;;;;;;;;;;;;41.09;24.06;102178.13;5055811;28;19913;-58
2023/06/01 11:41:23;;;;;;;;;;;;;;;41.43;23.30;102172.66;5055215;28;19917;-57
2023/06/01 11:43:55;;;;;;;;;;;;;;;41.16;24.16;102181.06;5053914;28;19924;-58
2023/06/01 11:46:20;;;;;;;;;;;;;;;41.14;24.18;102173.00;5055138;28;19916;-54
2023/06/01 11:48:58;;;;;;;;;;;;;;;42.05;23.54;102182.75;5057657;28;19981;-57
2023/06/01 11:51:23;;;;;;;;;;;;;;;42.22;23.26;102174.94;5060163;28;19963;-58
2023/06/01 11:53:50;;;;;;;;;;;;;;;41.86;23.28;102183.69;5056465;28;19913;-58
2023/06/01 11:56:16;;;;;;;;;;;;;;;41.63;23.07;102169.75;5060213;28;19936;-57
2023/06/01 11:58:42;;;;;;;;;;;;;;;40.58;23.87;102166.84;5055030;28;19928;-57
2023/06/01 12:01:07;;;;;;;;;;;;;;;40.88;24.76;102167.34;5064872;28;19984;-57
2023/06/01 12:03:44;;;;;;;;;;;;;;;41.17;24.55;102157.44;5056795;28;19935;-54
2023/06/01 12:06:18;;;;;;;;;;;;;;;42.06;23.22;102175.94;5057082;28;19920;-58
2023/06/01 12:08:44;;;;;;;;;;;;;;;42.90;22.69;102174.81;5056763;28;19912;-57
2023/06/01 12:11:11;;;;;;;;;;;;;;;42.96;22.13;102176.06;5059333;28;19948;-59
2023/06/01 12:13:37;;;;;;;;;;;;;;;42.57;21.98;102170.88;5054449;28;19913;-59
2023/06/01 12:16:03;;;;;;;;;;;;;;;43.66;22.58;102172.50;5054308;28;19920;-57
2023/06/01 12:18:30;;;;;;;;;;;;;;;43.72;21.37;102172.97;5056662;28;19917;-58
2023/06/01 12:20:56;;;;;;;;;;;;;;;43.75;22.25;102169.34;5056593;28;19923;-59
2023/06/01 12:23:21;;;;;;;;;;;;;;;43.15;22.46;102176.19;5056627;28;19912;-59
2023/06/01 12:25:58;;;;;;;;;;;;;;;43.48;21.50;102169.59;5054651;28;19917;-59
2023/06/01 12:28:29;;;;;;;;;;;;;;;43.15;21.75;102176.19;5056709;28;19919;-59
2023/06/01 12:31:10;;;;;;;;;;;;;;;43.68;21.66;102169.31;5059145;28;19912;-58
2023/06/01 12:33:36;;;;;;;;;;;;;;;42.38;22.97;102163.44;5054431;28;19913;-57
2023/06/01 12:36:03;;;;;;;;;;;;;;;43.08;21.20;102160.06;5059222;28;19920;-61
2023/06/01 12:38:34;;;;;;;;;;;;;;;43.52;21.50;102169.63;5055986;28;19916;-57